createdAt,value
2022-11-24T00:00:35.818Z,83.55
2022-11-24T00:01:35.805Z,83.46
2022-11-24T00:02:35.915Z,83.52
2022-11-24T00:03:35.853Z,83.49
2022-11-24T00:04:36.028Z,83.58
2022-11-24T00:05:35.857Z,83.57
2022-11-24T00:06:35.737Z,83.53
2022-11-24T00:07:35.919Z,83.59
2022-11-24T00:08:35.908Z,83.69
2022-11-24T00:09:35.702Z,83.75
2022-11-24T00:10:35.703Z,83.69
2022-11-24T00:11:35.684Z,83.62
2022-11-24T00:12:35.658Z,83.51
2022-11-24T00:13:35.644Z,83.44
2022-11-24T00:14:35.934Z,83.59
2022-11-24T00:15:35.624Z,83.68
2022-11-24T00:16:35.639Z,83.83
2022-11-24T00:17:35.598Z,83.96
2022-11-24T00:18:35.575Z,84.09
2022-11-24T00:19:35.564Z,84.17
2022-11-24T00:20:35.565Z,84.18
2022-11-24T00:21:35.543Z,84.37
2022-11-24T00:22:35.526Z,84.47
2022-11-24T00:23:35.513Z,84.41
2022-11-24T00:24:35.783Z,84.45
2022-11-24T00:25:35.491Z,84.46
2022-11-24T00:26:35.483Z,84.54
2022-11-24T00:27:35.464Z,84.78
2022-11-24T00:28:35.443Z,84.59
2022-11-24T00:29:35.449Z,84.56
2022-11-24T00:30:35.492Z,84.54
2022-11-24T00:31:35.485Z,84.43
2022-11-24T00:32:35.411Z,84.34
2022-11-24T00:33:35.383Z,84.33
2022-11-24T00:34:35.684Z,84.35
2022-11-24T00:35:35.354Z,84.43
2022-11-24T00:36:35.342Z,84.17
2022-11-24T00:37:35.334Z,84.20
2022-11-24T00:38:35.343Z,84.20
2022-11-24T00:39:35.384Z,84.35
2022-11-24T00:40:35.362Z,84.29
2022-11-24T00:41:35.272Z,84.19
2022-11-24T00:42:35.257Z,84.49
2022-11-24T00:43:35.252Z,84.56
2022-11-24T00:44:35.472Z,84.47
2022-11-24T00:45:35.291Z,84.04
2022-11-24T00:46:35.375Z,83.94
2022-11-24T00:47:35.202Z,84.07
2022-11-24T00:48:35.187Z,84.16
2022-11-24T00:49:35.174Z,84.11
2022-11-24T00:50:35.182Z,84.00
2022-11-24T00:51:35.150Z,84.01
2022-11-24T00:52:35.130Z,83.88
2022-11-24T00:53:35.133Z,83.89
2022-11-24T00:54:35.352Z,83.91
2022-11-24T00:55:35.091Z,83.96
2022-11-24T00:56:35.092Z,83.86
2022-11-24T00:57:35.061Z,83.88
2022-11-24T00:58:35.041Z,83.99
2022-11-24T00:59:35.042Z,83.99
2022-11-24T01:00:35.019Z,84.01
2022-11-24T01:01:36.061Z,84.13
2022-11-24T01:02:35.050Z,84.18
2022-11-24T01:03:34.990Z,84.13
2022-11-24T01:04:35.308Z,83.98
2022-11-24T01:05:34.951Z,83.99
2022-11-24T01:06:34.940Z,83.89
2022-11-24T01:07:34.949Z,83.86
2022-11-24T01:08:34.944Z,83.71
2022-11-24T01:09:34.901Z,83.79
2022-11-24T01:10:34.888Z,83.77
2022-11-24T01:11:34.871Z,83.91
2022-11-24T01:12:34.859Z,83.76
2022-11-24T01:13:34.850Z,83.74
2022-11-24T01:14:35.141Z,83.98
2022-11-24T01:15:34.887Z,84.08
2022-11-24T01:16:34.810Z,83.94
2022-11-24T01:17:34.801Z,84.16
2022-11-24T01:18:34.780Z,84.29
2022-11-24T01:19:34.769Z,84.22
2022-11-24T01:20:34.780Z,84.33
2022-11-24T01:21:34.750Z,84.30
2022-11-24T01:22:34.730Z,84.28
2022-11-24T01:23:34.719Z,84.45
2022-11-24T01:24:34.985Z,84.57
2022-11-24T01:25:34.700Z,84.34
2022-11-24T01:26:34.699Z,84.17
2022-11-24T01:27:34.662Z,84.32
2022-11-24T01:28:34.650Z,84.42
2022-11-24T01:29:34.640Z,84.42
2022-11-24T01:30:34.650Z,84.54
2022-11-24T01:31:34.618Z,84.61
2022-11-24T01:32:34.617Z,84.59
2022-11-24T01:33:34.589Z,84.62
2022-11-24T01:34:34.841Z,84.54
2022-11-24T01:35:34.560Z,84.62
2022-11-24T01:36:34.540Z,84.77
2022-11-24T01:37:34.538Z,84.83
2022-11-24T01:38:34.532Z,84.95
2022-11-24T01:39:34.509Z,85.10
2022-11-24T01:40:34.494Z,85.04
2022-11-24T01:41:34.478Z,85.02
2022-11-24T01:42:34.459Z,85.12
2022-11-24T01:43:34.459Z,85.11
2022-11-24T01:44:34.715Z,85.03
2022-11-24T01:45:34.418Z,85.00
2022-11-24T01:46:34.449Z,84.82
2022-11-24T01:47:34.400Z,84.82
2022-11-24T01:48:34.376Z,84.88
2022-11-24T01:49:34.378Z,85.14
2022-11-24T01:50:34.375Z,85.14
2022-11-24T01:51:34.347Z,85.04
2022-11-24T01:52:34.330Z,84.93
2022-11-24T01:53:34.316Z,84.77
2022-11-24T01:54:34.469Z,84.66
2022-11-24T01:55:34.287Z,84.70
2022-11-24T01:56:34.307Z,84.72
2022-11-24T01:57:34.265Z,84.70
2022-11-24T01:58:34.247Z,84.69
2022-11-24T01:59:34.238Z,84.72
2022-11-24T02:00:34.216Z,84.79
2022-11-24T02:01:34.269Z,84.79
2022-11-24T02:02:34.286Z,84.88
2022-11-24T02:03:34.187Z,84.72
2022-11-24T02:04:34.572Z,84.62
2022-11-24T02:05:34.164Z,84.67
2022-11-24T02:06:34.136Z,84.94
2022-11-24T02:07:34.183Z,84.98
2022-11-24T02:08:34.136Z,84.84
2022-11-24T02:09:34.120Z,84.58
2022-11-24T02:10:34.087Z,84.44
2022-11-24T02:11:34.086Z,84.54
2022-11-24T02:12:34.056Z,84.65
2022-11-24T02:13:34.053Z,84.61
2022-11-24T02:14:34.284Z,84.47
2022-11-24T02:15:34.088Z,84.39
2022-11-24T02:16:34.014Z,84.37
2022-11-24T02:17:34.005Z,84.38
2022-11-24T02:18:33.984Z,84.23
2022-11-24T02:19:33.973Z,84.32
2022-11-24T02:20:33.976Z,84.15
2022-11-24T02:21:33.949Z,84.16
2022-11-24T02:22:34.012Z,84.47
2022-11-24T02:23:33.928Z,84.46
2022-11-24T02:24:34.142Z,84.31
2022-11-24T02:25:33.895Z,84.47
2022-11-24T02:26:33.896Z,84.58
2022-11-24T02:27:33.878Z,84.51
2022-11-24T02:28:33.852Z,84.45
2022-11-24T02:29:33.843Z,84.61
2022-11-24T02:30:33.822Z,84.45
2022-11-24T02:31:33.854Z,84.42
2022-11-24T02:32:33.813Z,84.37
2022-11-24T02:33:33.784Z,84.25
2022-11-24T02:34:34.168Z,84.23
2022-11-24T02:35:33.760Z,84.40
2022-11-24T02:36:33.743Z,84.53
2022-11-24T02:37:33.732Z,84.69
2022-11-24T02:38:33.730Z,84.82
2022-11-24T02:39:33.712Z,84.72
2022-11-24T02:40:33.683Z,84.80
2022-11-24T02:41:33.683Z,84.83
2022-11-24T02:42:33.665Z,84.90
2022-11-24T02:43:33.651Z,84.85
2022-11-24T02:44:33.849Z,84.89
2022-11-24T02:45:33.621Z,84.90
2022-11-24T02:46:33.666Z,84.90
2022-11-24T02:47:33.600Z,85.08
2022-11-24T02:48:33.584Z,85.19
2022-11-24T02:49:33.572Z,85.20
2022-11-24T02:50:33.579Z,85.39
2022-11-24T02:51:33.550Z,85.42
2022-11-24T02:52:33.541Z,85.43
2022-11-24T02:53:33.522Z,85.54
2022-11-24T02:54:33.888Z,85.44
2022-11-24T02:55:33.507Z,85.66
2022-11-24T02:56:33.502Z,85.71
2022-11-24T02:57:33.470Z,85.87
2022-11-24T02:58:33.451Z,85.87
2022-11-24T02:59:33.442Z,85.85
2022-11-24T03:00:33.420Z,85.79
2022-11-24T03:01:33.431Z,85.84
2022-11-24T03:02:33.447Z,86.00
2022-11-24T03:03:33.392Z,86.13
2022-11-24T03:04:33.705Z,86.34
2022-11-24T03:05:33.370Z,86.47
2022-11-24T03:06:33.343Z,86.51
2022-11-24T03:07:33.407Z,86.63
2022-11-24T03:08:33.340Z,86.62
2022-11-24T03:09:33.310Z,86.59
2022-11-24T03:10:33.290Z,86.59
2022-11-24T03:11:33.287Z,86.69
2022-11-24T03:12:33.261Z,86.70
2022-11-24T03:13:33.250Z,86.69
2022-11-24T03:14:33.588Z,86.65
2022-11-24T03:15:33.298Z,86.64
2022-11-24T03:16:33.225Z,86.62
2022-11-24T03:17:33.202Z,86.47
2022-11-24T03:18:33.188Z,86.46
2022-11-24T03:19:33.181Z,86.46
2022-11-24T03:20:33.189Z,86.35
2022-11-24T03:21:33.150Z,86.15
2022-11-24T03:22:33.130Z,86.14
2022-11-24T03:23:33.122Z,86.12
2022-11-24T03:24:33.408Z,86.07
2022-11-24T03:25:33.099Z,86.02
2022-11-24T03:26:33.118Z,86.00
2022-11-24T03:27:33.069Z,85.87
2022-11-24T03:28:33.057Z,85.74
2022-11-24T03:29:33.041Z,85.57
2022-11-24T03:30:33.030Z,85.53
2022-11-24T03:31:33.060Z,85.36
2022-11-24T03:32:33.015Z,85.20
2022-11-24T03:33:32.989Z,85.22
2022-11-24T03:34:33.183Z,84.99
2022-11-24T03:35:32.972Z,84.75
2022-11-24T03:36:32.948Z,84.71
2022-11-24T03:37:32.944Z,84.79
2022-11-24T03:38:32.947Z,84.52
2022-11-24T03:39:32.898Z,84.35
2022-11-24T03:40:32.896Z,84.18
2022-11-24T03:41:32.891Z,84.20
2022-11-24T03:42:32.865Z,84.08
2022-11-24T03:43:32.862Z,83.92
2022-11-24T03:44:33.235Z,83.66
2022-11-24T03:45:48.311Z,83.68
2022-11-24T03:46:33.875Z,83.56
2022-11-24T03:47:32.797Z,83.42
2022-11-24T03:48:32.798Z,83.35
2022-11-24T03:49:33.140Z,83.29
2022-11-24T03:50:32.783Z,83.30
2022-11-24T03:51:32.748Z,83.31
2022-11-24T03:52:32.742Z,83.21
2022-11-24T03:53:32.725Z,83.18
2022-11-24T03:54:32.952Z,83.00
2022-11-24T03:55:32.697Z,83.05
2022-11-24T03:56:32.707Z,83.05
2022-11-24T03:57:32.666Z,83.15
2022-11-24T03:58:32.655Z,83.11
2022-11-24T03:59:32.639Z,83.11
2022-11-24T04:00:32.636Z,83.08
2022-11-24T04:01:32.681Z,83.01
2022-11-24T04:02:32.691Z,82.94
2022-11-24T04:03:32.587Z,82.95
2022-11-24T04:04:32.824Z,82.88
2022-11-24T04:05:32.566Z,82.79
2022-11-24T04:06:32.558Z,82.80
2022-11-24T04:07:32.620Z,82.66
2022-11-24T04:08:32.554Z,82.78
2022-11-24T04:09:32.506Z,82.81
2022-11-24T04:10:32.496Z,82.70
2022-11-24T04:11:32.485Z,82.76
2022-11-24T04:12:32.476Z,82.74
2022-11-24T04:13:32.465Z,82.77
2022-11-24T04:14:32.816Z,82.73
2022-11-24T04:15:32.446Z,82.64
2022-11-24T04:16:32.482Z,82.62
2022-11-24T04:17:32.405Z,82.43
2022-11-24T04:18:32.396Z,82.43
2022-11-24T04:19:32.375Z,82.28
2022-11-24T04:20:32.386Z,82.21
2022-11-24T04:21:32.354Z,82.18
2022-11-24T04:22:32.345Z,82.02
2022-11-24T04:23:32.323Z,81.95
2022-11-24T04:24:32.695Z,81.93
2022-11-24T04:25:32.294Z,81.95
2022-11-24T04:26:32.305Z,81.86
2022-11-24T04:27:32.275Z,81.68
2022-11-24T04:28:32.265Z,81.72
2022-11-24T04:29:32.246Z,81.55
2022-11-24T04:30:32.235Z,81.38
2022-11-24T04:31:32.269Z,81.23
2022-11-24T04:32:32.233Z,81.06
2022-11-24T04:33:32.183Z,81.03
2022-11-24T04:34:32.539Z,81.05
2022-11-24T04:35:32.167Z,81.04
2022-11-24T04:36:32.161Z,80.95
2022-11-24T04:37:32.138Z,80.97
2022-11-24T04:39:25.671Z,80.78
2022-11-24T04:39:33.104Z,80.85
2022-11-24T04:40:32.103Z,80.64
2022-11-24T04:41:32.086Z,80.76
2022-11-24T04:42:32.083Z,80.77
2022-11-24T04:43:36.345Z,80.79
2022-11-24T04:44:33.191Z,80.95
2022-11-24T04:45:32.032Z,80.93
2022-11-24T04:46:32.052Z,80.92
2022-11-24T04:47:32.013Z,80.77
2022-11-24T04:48:31.983Z,80.87
2022-11-24T04:49:31.982Z,80.93
2022-11-24T04:50:31.996Z,81.22
2022-11-24T04:51:31.953Z,81.25
2022-11-24T04:52:31.941Z,81.23
2022-11-24T04:53:31.934Z,81.02
2022-11-24T04:54:32.263Z,81.51
2022-11-24T04:55:31.901Z,81.09
2022-11-24T04:56:31.912Z,81.04
2022-11-24T04:57:31.880Z,81.27
2022-11-24T04:58:31.852Z,81.14
2022-11-24T04:59:31.858Z,81.07
2022-11-24T05:00:31.832Z,81.01
2022-11-24T05:01:31.862Z,81.14
2022-11-24T05:02:31.821Z,81.14
2022-11-24T05:03:31.801Z,81.04
2022-11-24T05:04:32.191Z,81.10
2022-11-24T05:05:31.772Z,81.28
2022-11-24T05:06:31.751Z,81.27
2022-11-24T05:07:31.771Z,81.11
2022-11-24T05:08:31.752Z,81.22
2022-11-24T05:09:55.023Z,81.26
2022-11-24T05:10:32.701Z,81.08
2022-11-24T05:11:31.693Z,80.95
2022-11-24T05:12:31.682Z,81.12
2022-11-24T05:13:31.665Z,81.12
2022-11-24T05:14:31.832Z,81.12
2022-11-24T05:15:31.641Z,81.24
2022-11-24T05:16:31.662Z,81.14
2022-11-24T05:17:31.614Z,81.28
2022-11-24T05:18:31.590Z,81.41
2022-11-24T05:19:32.498Z,81.35
2022-11-24T05:20:31.591Z,81.46
2022-11-24T05:21:31.562Z,81.72
2022-11-24T05:22:31.543Z,81.69
2022-11-24T05:23:31.538Z,81.80
2022-11-24T05:24:31.936Z,81.78
2022-11-24T05:25:31.508Z,81.80
2022-11-24T05:26:31.504Z,81.57
2022-11-24T05:27:31.479Z,81.58
2022-11-24T05:28:31.459Z,81.50
2022-11-24T05:29:31.498Z,81.58
2022-11-24T05:30:31.442Z,81.73
2022-11-24T05:31:31.555Z,81.81
2022-11-24T05:32:31.441Z,81.93
2022-11-24T05:33:31.400Z,82.13
2022-11-24T05:34:31.597Z,82.06
2022-11-24T05:35:31.397Z,82.06
2022-11-24T05:36:31.350Z,82.03
2022-11-24T05:37:31.348Z,81.97
2022-11-24T05:38:31.356Z,82.03
2022-11-24T05:39:31.318Z,82.14
2022-11-24T05:40:31.298Z,82.19
2022-11-24T05:41:31.298Z,82.20
2022-11-24T05:42:31.279Z,82.10
2022-11-24T05:43:31.267Z,82.14
2022-11-24T05:44:31.379Z,82.21
2022-11-24T05:45:31.238Z,82.20
2022-11-24T05:46:31.247Z,82.24
2022-11-24T05:47:31.211Z,82.34
2022-11-24T05:48:31.204Z,82.44
2022-11-24T05:49:31.179Z,82.50
2022-11-24T05:50:31.198Z,82.50
2022-11-24T05:51:31.165Z,82.57
2022-11-24T05:52:31.148Z,82.64
2022-11-24T05:53:31.128Z,82.67
2022-11-24T05:54:31.211Z,82.67
2022-11-24T05:55:31.107Z,82.67
2022-11-24T05:56:31.118Z,82.69
2022-11-24T05:57:31.088Z,82.67
2022-11-24T05:58:31.067Z,82.65
2022-11-24T05:59:31.051Z,82.69
2022-11-24T06:00:31.037Z,82.73
2022-11-24T06:01:31.053Z,82.49
2022-11-24T06:02:31.163Z,82.51
2022-11-24T06:03:31.003Z,82.45
2022-11-24T06:04:30.998Z,82.44
2022-11-24T06:05:30.976Z,82.60
2022-11-24T06:06:30.957Z,82.74
2022-11-24T06:07:31.015Z,82.68
2022-11-24T06:08:31.567Z,82.68
2022-11-24T06:09:30.916Z,82.61
2022-11-24T06:10:30.907Z,82.58
2022-11-24T06:11:30.896Z,82.44
2022-11-24T06:12:30.877Z,82.51
2022-11-24T06:13:30.903Z,82.39
2022-11-24T06:14:30.928Z,82.42
2022-11-24T06:15:30.846Z,82.42
2022-11-24T06:16:30.854Z,82.33
2022-11-24T06:17:30.815Z,82.48
2022-11-24T06:18:30.797Z,82.57
2022-11-24T06:19:30.788Z,82.58
2022-11-24T06:20:32.904Z,82.57
2022-11-24T06:21:30.767Z,82.62
2022-11-24T06:22:30.745Z,82.48
2022-11-24T06:23:30.747Z,82.49
2022-11-24T06:24:30.715Z,82.49
2022-11-24T06:25:30.713Z,82.48
2022-11-24T06:26:30.746Z,82.57
2022-11-24T06:27:30.685Z,82.66
2022-11-24T06:28:30.666Z,82.78
2022-11-24T06:29:30.663Z,82.84
2022-11-24T06:30:30.634Z,82.83
2022-11-24T06:31:30.648Z,82.76
2022-11-24T06:32:30.624Z,82.78
2022-11-24T06:33:30.601Z,82.54
2022-11-24T06:34:30.585Z,82.62
2022-11-24T06:35:30.574Z,82.68
2022-11-24T06:36:30.564Z,82.70
2022-11-24T06:37:30.546Z,82.57
2022-11-24T06:38:30.555Z,82.48
2022-11-24T06:39:30.524Z,82.53
2022-11-24T06:40:30.504Z,82.62
2022-11-24T06:41:30.494Z,82.60
2022-11-24T06:42:30.484Z,82.42
2022-11-24T06:43:30.463Z,82.34
2022-11-24T06:44:30.503Z,82.31
2022-11-24T06:45:30.510Z,82.42
2022-11-24T06:46:30.423Z,82.37
2022-11-24T06:47:30.420Z,82.32
2022-11-24T06:48:30.395Z,82.24
2022-11-24T06:49:30.393Z,82.22
2022-11-24T06:50:33.602Z,82.22
2022-11-24T06:51:30.362Z,82.32
2022-11-24T06:52:30.342Z,82.51
2022-11-24T06:53:30.340Z,82.65
2022-11-24T06:54:30.322Z,82.52
2022-11-24T06:55:30.313Z,82.53
2022-11-24T06:56:30.313Z,82.51
2022-11-24T06:57:30.283Z,82.51
2022-11-24T06:58:30.261Z,82.57
2022-11-24T06:59:30.262Z,82.67
2022-11-24T07:00:30.233Z,82.81
2022-11-24T07:01:30.283Z,82.83
2022-11-24T07:02:30.236Z,82.81
2022-11-24T07:03:30.280Z,83.16
2022-11-24T07:04:30.191Z,83.27
2022-11-24T07:05:30.170Z,83.00
2022-11-24T07:06:30.151Z,83.00
2022-11-24T07:07:30.173Z,82.97
2022-11-24T07:08:30.161Z,82.94
2022-11-24T07:09:30.128Z,83.10
2022-11-24T07:10:30.101Z,82.90
2022-11-24T07:11:30.093Z,83.00
2022-11-24T07:12:30.091Z,82.93
2022-11-24T07:13:30.070Z,82.71
2022-11-24T07:14:30.069Z,82.69
2022-11-24T07:15:30.040Z,82.70
2022-11-24T07:16:30.044Z,82.67
2022-11-24T07:17:30.020Z,82.57
2022-11-24T07:18:30.003Z,82.49
2022-11-24T07:19:29.990Z,82.39
2022-11-24T07:20:29.992Z,82.46
2022-11-24T07:21:29.960Z,82.43
2022-11-24T07:22:29.950Z,82.31
2022-11-24T07:23:29.940Z,82.28
2022-11-24T07:24:29.909Z,82.34
2022-11-24T07:25:29.910Z,82.28
2022-11-24T07:26:29.919Z,82.14
2022-11-24T07:27:29.887Z,82.02
2022-11-24T07:28:29.869Z,82.04
2022-11-24T07:29:29.861Z,82.09
2022-11-24T07:30:29.839Z,81.92
2022-11-24T07:31:29.876Z,82.00
2022-11-24T07:32:29.827Z,81.84
2022-11-24T07:33:29.828Z,81.75
2022-11-24T07:34:29.788Z,81.78
2022-11-24T07:35:29.781Z,81.85
2022-11-24T07:36:29.850Z,81.57
2022-11-24T07:37:31.636Z,81.49
2022-11-24T07:38:29.757Z,81.65
2022-11-24T07:39:29.718Z,81.60
2022-11-24T07:40:29.699Z,81.28
2022-11-24T07:41:29.689Z,81.47
2022-11-24T07:42:29.678Z,81.42
2022-11-24T07:43:29.668Z,81.32
2022-11-24T07:44:29.679Z,81.42
2022-11-24T07:45:29.691Z,81.39
2022-11-24T07:46:29.660Z,81.30
2022-11-24T07:47:29.669Z,81.17
2022-11-24T07:48:29.599Z,81.09
2022-11-24T07:49:29.587Z,81.21
2022-11-24T07:50:29.588Z,81.12
2022-11-24T07:51:29.567Z,80.92
2022-11-24T07:52:29.544Z,80.90
2022-11-24T07:53:29.537Z,80.95
2022-11-24T07:54:29.515Z,81.13
2022-11-24T07:55:29.508Z,80.88
2022-11-24T07:56:29.496Z,80.86
2022-11-24T07:57:29.478Z,80.82
2022-11-24T07:58:32.721Z,80.93
2022-11-24T07:59:29.446Z,80.85
2022-11-24T08:00:29.446Z,81.01
2022-11-24T08:01:33.319Z,80.75
2022-11-24T08:02:29.450Z,80.68
2022-11-24T08:03:29.507Z,80.54
2022-11-24T08:04:29.377Z,80.57
2022-11-24T08:05:29.376Z,80.59
2022-11-24T08:06:36.185Z,80.49
2022-11-24T08:07:30.412Z,80.29
2022-11-24T08:08:29.346Z,80.22
2022-11-24T08:09:29.315Z,79.98
2022-11-24T08:10:29.305Z,79.93
2022-11-24T08:11:29.290Z,79.94
2022-11-24T08:12:29.287Z,79.87
2022-11-24T08:13:29.285Z,79.89
2022-11-24T08:14:29.257Z,79.91
2022-11-24T08:15:29.235Z,79.94
2022-11-24T08:16:29.284Z,80.02
2022-11-24T08:17:29.327Z,80.18
2022-11-24T08:18:29.196Z,80.14
2022-11-24T08:19:29.206Z,79.75
2022-11-24T08:20:29.175Z,79.75
2022-11-24T08:21:29.161Z,79.69
2022-11-24T08:22:29.158Z,79.84
2022-11-24T08:23:29.132Z,79.83
2022-11-24T08:24:29.127Z,79.86
2022-11-24T08:25:29.135Z,79.96
2022-11-24T08:26:29.093Z,80.03
2022-11-24T08:27:29.075Z,79.97
2022-11-24T08:28:29.065Z,80.10
2022-11-24T08:29:29.043Z,80.18
2022-11-24T08:30:29.035Z,80.34
2022-11-24T08:31:29.075Z,80.52
2022-11-24T08:32:29.024Z,80.53
2022-11-24T08:33:28.995Z,80.59
2022-11-24T08:34:28.982Z,80.61
2022-11-24T08:35:28.970Z,80.57
2022-11-24T08:36:28.965Z,80.48
2022-11-24T08:37:28.975Z,80.51
2022-11-24T08:38:28.933Z,80.67
2022-11-24T08:39:28.914Z,80.96
2022-11-24T08:40:28.913Z,81.01
2022-11-24T08:41:28.892Z,81.07
2022-11-24T08:42:28.885Z,81.19
2022-11-24T08:43:28.894Z,80.86
2022-11-24T08:44:28.862Z,80.88
2022-11-24T08:45:30.768Z,80.88
2022-11-24T08:46:29.919Z,80.60
2022-11-24T08:47:28.813Z,80.73
2022-11-24T08:48:28.798Z,80.93
2022-11-24T08:49:28.801Z,80.96
2022-11-24T08:50:28.772Z,80.92
2022-11-24T08:51:28.753Z,80.99
2022-11-24T08:52:28.751Z,81.19
2022-11-24T08:53:28.732Z,80.90
2022-11-24T08:54:28.720Z,80.91
2022-11-24T08:55:28.734Z,81.21
2022-11-24T08:56:28.825Z,81.29
2022-11-24T08:57:28.784Z,81.22
2022-11-24T08:58:28.664Z,80.88
2022-11-24T08:59:28.695Z,80.86
2022-11-24T09:00:28.641Z,80.90
2022-11-24T09:01:28.746Z,80.88
2022-11-24T09:02:28.697Z,80.97
2022-11-24T09:03:28.600Z,81.02
2022-11-24T09:04:28.645Z,81.07
2022-11-24T09:05:51.372Z,81.14
2022-11-24T09:06:29.582Z,81.19
2022-11-24T09:07:28.588Z,81.21
2022-11-24T09:08:28.541Z,81.14
2022-11-24T09:09:28.513Z,81.24
2022-11-24T09:10:28.514Z,81.39
2022-11-24T09:11:28.482Z,81.61
2022-11-24T09:12:28.504Z,81.88
2022-11-24T09:13:28.462Z,82.09
2022-11-24T09:14:28.471Z,82.06
2022-11-24T09:15:28.451Z,82.10
2022-11-24T09:16:28.501Z,82.19
2022-11-24T09:17:28.400Z,82.21
2022-11-24T09:18:30.445Z,82.71
2022-11-24T09:19:28.388Z,83.43
2022-11-24T09:20:28.382Z,82.85
2022-11-24T09:21:28.350Z,82.43
2022-11-24T09:22:28.362Z,82.40
2022-11-24T09:23:28.339Z,82.61
2022-11-24T09:24:28.460Z,82.64
2022-11-24T09:25:28.310Z,83.16
2022-11-24T09:26:28.302Z,82.83
2022-11-24T09:27:28.292Z,82.62
2022-11-24T09:28:28.272Z,82.41
2022-11-24T09:29:28.250Z,82.72
2022-11-24T09:30:28.290Z,82.80
2022-11-24T09:31:28.302Z,82.52
2022-11-24T09:32:28.226Z,82.84
2022-11-24T09:33:28.190Z,82.84
2022-11-24T09:34:28.190Z,82.89
2022-11-24T09:35:28.170Z,82.56
2022-11-24T09:36:28.181Z,82.21
2022-11-24T09:37:32.450Z,82.31
2022-11-24T09:38:28.135Z,82.59
2022-11-24T09:39:28.132Z,82.48
2022-11-24T09:40:28.114Z,82.34
2022-11-24T09:41:28.099Z,82.32
2022-11-24T09:42:28.108Z,82.62
2022-11-24T09:43:28.070Z,81.98
2022-11-24T09:44:28.048Z,81.86
2022-11-24T09:45:57.124Z,81.90
2022-11-24T09:46:29.068Z,81.91
2022-11-24T09:47:28.017Z,81.93
2022-11-24T09:48:28.035Z,81.85
2022-11-24T09:49:27.989Z,81.74
2022-11-24T09:50:27.968Z,81.50
2022-11-24T09:51:27.958Z,81.76
2022-11-24T09:52:27.947Z,81.63
2022-11-24T09:53:27.943Z,82.01
2022-11-24T09:54:27.956Z,82.37
2022-11-24T09:55:27.908Z,82.51
2022-11-24T09:56:27.887Z,82.70
2022-11-24T09:57:31.385Z,82.75
2022-11-24T09:58:28.867Z,82.89
2022-11-24T09:59:27.848Z,82.63
2022-11-24T10:00:27.873Z,82.59
2022-11-24T10:01:27.920Z,83.08
2022-11-24T10:02:27.808Z,83.01
2022-11-24T10:03:27.844Z,82.79
2022-11-24T10:04:27.822Z,82.85
2022-11-24T10:05:27.775Z,82.99
2022-11-24T10:06:27.777Z,83.05
2022-11-24T10:07:27.770Z,83.18
2022-11-24T10:08:27.728Z,83.40
2022-11-24T10:09:27.724Z,83.60
2022-11-24T10:10:27.725Z,84.05
2022-11-24T10:11:27.699Z,84.27
2022-11-24T10:12:27.707Z,84.23
2022-11-24T10:13:27.698Z,83.74
2022-11-24T10:14:27.647Z,83.74
2022-11-24T10:15:27.691Z,83.89
2022-11-24T10:16:27.671Z,83.62
2022-11-24T10:17:27.616Z,83.76
2022-11-24T10:18:27.629Z,83.91
2022-11-24T10:19:36.395Z,83.90
2022-11-24T10:20:28.571Z,83.72
2022-11-24T10:21:27.569Z,83.96
2022-11-24T10:22:27.546Z,83.88
2022-11-24T10:23:27.537Z,84.11
2022-11-24T10:24:27.545Z,84.04
2022-11-24T10:25:27.517Z,83.93
2022-11-24T10:26:27.499Z,84.02
2022-11-24T10:27:27.488Z,83.83
2022-11-24T10:28:27.469Z,83.75
2022-11-24T10:29:27.455Z,84.15
2022-11-24T10:30:27.465Z,84.06
2022-11-24T10:31:27.499Z,83.88
2022-11-24T10:32:27.405Z,83.71
2022-11-24T10:33:30.871Z,83.44
2022-11-24T10:34:27.387Z,83.75
2022-11-24T10:35:27.376Z,83.75
2022-11-24T10:36:27.386Z,84.06
2022-11-24T10:37:27.358Z,84.61
2022-11-24T10:38:27.333Z,84.90
2022-11-24T10:39:27.325Z,84.67
2022-11-24T10:40:55.505Z,84.54
2022-11-24T10:41:28.305Z,84.54
2022-11-24T10:42:27.275Z,84.71
2022-11-24T10:43:27.267Z,84.64
2022-11-24T10:44:27.255Z,84.77
2022-11-24T10:45:27.282Z,84.60
2022-11-24T10:46:27.323Z,84.58
2022-11-24T10:47:27.245Z,84.67
2022-11-24T10:48:27.194Z,85.00
2022-11-24T10:49:27.196Z,85.09
2022-11-24T10:50:27.177Z,85.17
2022-11-24T10:51:27.175Z,85.15
2022-11-24T10:52:27.145Z,85.27
2022-11-24T10:53:27.165Z,85.09
2022-11-24T10:54:27.114Z,84.85
2022-11-24T10:55:27.134Z,84.73
2022-11-24T10:56:27.086Z,84.77
2022-11-24T10:57:27.084Z,85.07
2022-11-24T10:58:28.070Z,84.92
2022-11-24T10:59:27.079Z,85.06
2022-11-24T11:00:27.034Z,84.94
2022-11-24T11:01:27.051Z,85.10
2022-11-24T11:02:27.053Z,84.93
2022-11-24T11:03:27.005Z,84.94
2022-11-24T11:04:26.984Z,85.11
2022-11-24T11:05:27.994Z,85.14
2022-11-24T11:06:26.961Z,85.00
2022-11-24T11:07:27.012Z,85.07
2022-11-24T11:08:26.934Z,85.16
2022-11-24T11:09:27.004Z,85.24
2022-11-24T11:10:26.906Z,85.25
2022-11-24T11:11:26.923Z,85.50
2022-11-24T11:12:43.368Z,85.66
2022-11-24T11:13:27.872Z,85.65
2022-11-24T11:14:26.853Z,85.85
2022-11-24T11:15:27.062Z,85.96
2022-11-24T11:16:26.903Z,85.93
2022-11-24T11:17:26.844Z,86.11
2022-11-24T11:18:26.803Z,86.22
2022-11-24T11:19:47.985Z,86.03
2022-11-24T11:20:27.779Z,85.86
2022-11-24T11:21:26.764Z,85.90
2022-11-24T11:22:26.738Z,86.19
2022-11-24T11:23:26.754Z,86.11
2022-11-24T11:24:26.712Z,86.04
2022-11-24T11:25:26.702Z,86.08
2022-11-24T11:26:26.684Z,86.11
2022-11-24T11:27:26.672Z,86.16
2022-11-24T11:28:26.674Z,86.18
2022-11-24T11:31:27.613Z,86.53
2022-11-24T11:34:30.278Z,85.70
2022-11-24T11:35:26.563Z,85.82
2022-11-24T11:36:26.562Z,85.77
2022-11-24T11:37:26.681Z,85.91
2022-11-24T11:38:26.530Z,86.01
2022-11-24T11:39:26.525Z,86.24
2022-11-24T11:40:26.542Z,86.43
2022-11-24T11:41:26.522Z,86.76
2022-11-24T11:43:00.072Z,86.83
2022-11-24T11:43:27.459Z,86.48
2022-11-24T11:44:26.441Z,86.62
2022-11-24T11:45:26.529Z,86.43
2022-11-24T11:46:26.507Z,86.60
2022-11-24T11:47:26.405Z,86.55
2022-11-24T11:48:26.403Z,86.77
2022-11-24T11:49:26.379Z,86.82
2022-11-24T11:50:26.409Z,86.69
2022-11-24T11:51:26.599Z,86.64
2022-11-24T11:52:26.372Z,86.32
2022-11-24T11:53:26.330Z,86.37
2022-11-24T11:54:26.320Z,86.73
2022-11-24T11:55:26.290Z,86.90
2022-11-24T11:56:26.292Z,86.75
2022-11-24T11:57:26.271Z,86.53
2022-11-24T11:58:26.281Z,86.43
2022-11-24T11:59:26.242Z,86.74
2022-11-24T12:00:26.231Z,86.91
2022-11-24T12:01:26.236Z,86.86
2022-11-24T12:02:26.309Z,86.79
2022-11-24T12:03:26.332Z,86.27
2022-11-24T12:04:26.210Z,86.12
2022-11-24T12:05:26.167Z,86.10
2022-11-24T12:06:26.158Z,86.14
2022-11-24T12:07:26.179Z,86.05
2022-11-24T12:08:26.129Z,86.42
2022-11-24T12:09:26.116Z,86.45
2022-11-24T12:10:26.120Z,86.37
2022-11-24T12:11:26.097Z,86.69
2022-11-24T12:12:26.068Z,86.63
2022-11-24T12:13:26.051Z,86.84
2022-11-24T12:14:26.039Z,86.52
2022-11-24T12:15:26.027Z,86.53
2022-11-24T12:16:26.086Z,86.64
2022-11-24T12:17:26.000Z,86.40
2022-11-24T12:18:55.727Z,86.64
2022-11-24T12:19:26.990Z,86.54
2022-11-24T12:20:25.959Z,86.80
2022-11-24T12:21:26.843Z,86.72
2022-11-24T12:22:25.968Z,86.68
2022-11-24T12:23:25.929Z,86.80
2022-11-24T12:24:25.937Z,86.73
2022-11-24T12:25:25.899Z,86.60
2022-11-24T12:26:25.879Z,86.57
2022-11-24T12:27:25.868Z,86.74
2022-11-24T12:28:25.891Z,86.95
2022-11-24T12:29:25.840Z,86.95
2022-11-24T12:30:25.827Z,86.87
2022-11-24T12:31:25.951Z,87.17
2022-11-24T12:32:25.798Z,87.22
2022-11-24T12:33:25.809Z,87.36
2022-11-24T12:34:25.807Z,87.33
2022-11-24T12:35:25.769Z,87.44
2022-11-24T12:36:25.764Z,87.61
2022-11-24T12:37:25.737Z,87.78
2022-11-24T12:38:25.720Z,87.96
2022-11-24T12:39:25.715Z,88.06
2022-11-24T12:40:25.709Z,88.08
2022-11-24T12:41:41.322Z,88.03
2022-11-24T12:42:26.667Z,87.86
2022-11-24T12:43:25.658Z,88.07
2022-11-24T12:44:25.643Z,88.19
2022-11-24T12:45:25.637Z,88.26
2022-11-24T12:46:25.653Z,88.32
2022-11-24T12:47:25.606Z,88.19
2022-11-24T12:48:25.585Z,88.12
2022-11-24T12:49:25.578Z,88.04
2022-11-24T12:50:25.557Z,88.11
2022-11-24T12:51:25.547Z,88.09
2022-11-24T12:52:25.548Z,88.10
2022-11-24T12:53:25.535Z,88.12
2022-11-24T12:54:25.506Z,88.23
2022-11-24T12:55:25.498Z,88.34
2022-11-24T12:56:25.486Z,88.42